createdAt,value
2018-05-08T17:07:48.500Z,22.00
2018-05-08T17:10:17.309Z,22.00
2018-05-08T17:12:46.225Z,22.00
2018-05-08T17:15:15.131Z,22.70
2018-05-08T17:17:45.262Z,22.00
2018-05-08T17:20:16.010Z,22.00
2018-05-08T17:22:45.637Z,22.10
2018-05-08T17:25:14.474Z,22.00
2018-05-08T17:27:43.324Z,22.10
2018-05-08T17:30:12.148Z,22.10
2018-05-08T17:32:41.470Z,22.10
2018-05-08T17:35:10.946Z,22.10
2018-05-08T17:37:39.742Z,22.00
2018-05-08T17:40:08.969Z,22.10
2018-05-08T17:42:40.071Z,22.10
2018-05-08T17:45:08.903Z,22.10
2018-05-08T17:47:37.685Z,22.10
2018-05-08T17:50:06.485Z,22.10
2018-05-08T17:52:36.129Z,22.10
2018-05-08T17:55:06.672Z,22.10
2018-05-08T17:57:36.642Z,22.10
2018-05-08T18:00:06.674Z,22.20
2018-05-08T18:02:36.475Z,22.10
2018-05-08T18:05:05.495Z,22.20
2018-05-08T18:07:34.521Z,22.20
2018-05-08T18:10:05.388Z,22.20
2018-05-08T18:12:35.626Z,22.20
2018-05-08T18:15:04.800Z,22.20
2018-05-08T18:17:33.787Z,22.20
2018-05-08T18:20:02.582Z,22.20
2018-05-08T18:22:31.423Z,22.20
2018-05-08T18:25:01.240Z,22.20
2018-05-08T18:27:30.482Z,22.20
2018-05-08T18:30:00.109Z,22.30
2018-05-08T18:32:29.927Z,22.30
2018-05-08T18:34:59.635Z,22.30
2018-05-08T18:37:28.748Z,22.20
2018-05-08T18:39:58.169Z,22.30
2018-05-08T18:42:27.091Z,22.30
2018-05-08T18:44:55.907Z,22.10
2018-05-08T18:47:25.964Z,22.40
2018-05-08T18:49:54.794Z,22.30
2018-05-08T18:52:24.093Z,22.40
2018-05-08T18:54:52.926Z,22.40
2018-05-08T18:57:22.159Z,22.40
2018-05-08T18:59:51.074Z,22.40
2018-05-08T19:02:20.434Z,22.40
2018-05-08T19:04:49.252Z,22.40
2018-05-08T19:07:18.155Z,22.40
2018-05-08T19:09:47.910Z,22.40
2018-05-08T19:12:18.466Z,22.40
2018-05-08T19:14:52.165Z,22.40
2018-05-08T19:17:21.783Z,22.40
2018-05-08T19:20:07.101Z,22.80
2018-05-08T19:22:36.796Z,22.50
2018-05-08T19:25:05.736Z,22.40
2018-05-08T19:27:35.757Z,22.50
2018-05-08T19:30:10.189Z,22.10
2018-05-08T19:32:40.136Z,22.50
2018-05-08T19:35:13.855Z,22.50
2018-05-08T19:38:27.705Z,22.50
2018-05-08T19:40:57.646Z,22.50
2018-05-08T19:43:26.885Z,22.50
2018-05-08T19:45:56.257Z,22.50
2018-05-08T19:48:26.551Z,22.50
2018-05-08T19:50:56.204Z,22.50
2018-05-08T19:53:25.129Z,22.50
2018-05-08T19:55:55.259Z,22.50
2018-05-08T19:58:24.054Z,22.90
2018-05-08T20:00:54.020Z,22.50
2018-05-08T20:03:22.813Z,22.60
2018-05-08T20:05:51.737Z,22.60
2018-05-08T20:08:21.055Z,22.80
2018-05-08T20:10:50.603Z,22.60
2018-05-08T20:13:19.381Z,22.50
2018-05-08T20:15:48.159Z,22.60
2018-05-08T20:18:17.205Z,22.60
2018-05-08T20:20:46.510Z,22.60
2018-05-08T20:23:16.229Z,22.60
2018-05-08T20:25:45.161Z,22.60
2018-05-08T20:28:14.437Z,22.60
2018-05-08T20:30:44.169Z,22.60
2018-05-08T20:33:13.295Z,22.60
2018-05-08T20:35:42.135Z,22.60
2018-05-08T20:38:11.602Z,22.60
2018-05-08T20:40:41.281Z,22.60
2018-05-08T20:43:11.327Z,22.60
2018-05-08T20:45:46.247Z,22.50
2018-05-08T20:48:14.995Z,22.60
2018-05-08T20:50:44.948Z,22.50
2018-05-08T20:53:14.344Z,22.60
2018-05-08T20:55:43.072Z,22.60
2018-05-08T20:58:11.924Z,22.70
2018-05-08T21:00:40.667Z,22.60
2018-05-08T21:03:10.297Z,22.70
2018-05-08T21:05:39.346Z,22.70
2018-05-08T21:08:09.906Z,22.70
2018-05-08T21:10:38.649Z,22.70
